createdAt,value
2022-12-18T00:00:41.527Z,1026.33
2022-12-18T00:01:41.605Z,1026.34
2022-12-18T00:02:41.575Z,1026.32
2022-12-18T00:03:41.984Z,1026.41
2022-12-18T00:04:41.487Z,1026.34
2022-12-18T00:05:41.467Z,1026.38
2022-12-18T00:06:41.466Z,1026.38
2022-12-18T00:07:41.451Z,1026.43
2022-12-18T00:08:41.438Z,1026.46
2022-12-18T00:09:41.448Z,1026.44
2022-12-18T00:10:41.437Z,1026.40
2022-12-18T00:11:41.419Z,1026.45
2022-12-18T00:12:41.375Z,1026.53
2022-12-18T00:13:41.834Z,1026.43
2022-12-18T00:14:41.646Z,1026.42
2022-12-18T00:15:41.337Z,1026.46
2022-12-18T00:16:41.375Z,1026.46
2022-12-18T00:17:41.319Z,1026.47
2022-12-18T00:18:41.799Z,1026.52
2022-12-18T00:19:41.286Z,1026.47
2022-12-18T00:20:41.276Z,1026.48
2022-12-18T00:21:41.288Z,1026.52
2022-12-18T00:22:41.248Z,1026.44
2022-12-18T00:23:41.662Z,1026.51
2022-12-18T00:24:41.221Z,1026.48
2022-12-18T00:25:41.225Z,1026.45
2022-12-18T00:26:41.241Z,1026.49
2022-12-18T00:27:41.186Z,1026.47
2022-12-18T00:28:41.189Z,1026.42
2022-12-18T00:29:41.193Z,1026.41
2022-12-18T00:30:41.155Z,1026.38
2022-12-18T00:31:41.187Z,1026.41
2022-12-18T00:32:41.127Z,1026.37
2022-12-18T00:33:41.483Z,1026.42
2022-12-18T00:34:41.110Z,1026.43
2022-12-18T00:35:41.075Z,1026.47
2022-12-18T00:36:41.100Z,1026.42
2022-12-18T00:37:41.055Z,1026.50
2022-12-18T00:38:41.045Z,1026.52
2022-12-18T00:39:41.036Z,1026.50
2022-12-18T00:40:41.024Z,1026.50
2022-12-18T00:41:41.037Z,1026.45
2022-12-18T00:42:40.997Z,1026.46
2022-12-18T00:43:41.356Z,1026.44
2022-12-18T00:44:40.975Z,1026.37
2022-12-18T00:45:41.002Z,1026.37
2022-12-18T00:46:40.948Z,1026.35
2022-12-18T00:47:40.947Z,1026.35
2022-12-18T00:48:40.915Z,1026.30
2022-12-18T00:49:40.902Z,1026.30
2022-12-18T00:50:40.897Z,1026.31
2022-12-18T00:51:40.886Z,1026.36
2022-12-18T00:52:40.892Z,1026.37
2022-12-18T00:53:41.131Z,1026.39
2022-12-18T00:54:40.843Z,1026.37
2022-12-18T00:55:40.833Z,1026.36
2022-12-18T00:56:48.326Z,1026.36
2022-12-18T00:57:41.845Z,1026.40
2022-12-18T00:58:40.794Z,1026.36
2022-12-18T00:59:40.793Z,1026.38
2022-12-18T01:00:40.803Z,1026.43
2022-12-18T01:01:40.858Z,1026.39
2022-12-18T01:02:40.869Z,1026.37
2022-12-18T01:03:41.351Z,1026.34
2022-12-18T01:04:40.714Z,1026.34
2022-12-18T01:05:40.723Z,1026.35
2022-12-18T01:06:40.684Z,1026.33
2022-12-18T01:07:40.746Z,1026.33
2022-12-18T01:08:40.659Z,1026.25
2022-12-18T01:09:40.654Z,1026.27
2022-12-18T01:10:40.636Z,1026.25
2022-12-18T01:11:40.626Z,1026.26
2022-12-18T01:12:40.631Z,1026.26
2022-12-18T01:13:40.974Z,1026.31
2022-12-18T01:14:40.594Z,1026.31
2022-12-18T01:15:40.596Z,1026.35
2022-12-18T01:16:40.764Z,1026.34
2022-12-18T01:17:40.565Z,1026.30
2022-12-18T01:18:40.534Z,1026.31
2022-12-18T01:19:40.528Z,1026.33
2022-12-18T01:20:40.538Z,1026.31
2022-12-18T01:21:40.501Z,1026.31
2022-12-18T01:22:40.531Z,1026.26
2022-12-18T01:23:40.858Z,1026.28
2022-12-18T01:24:40.457Z,1026.30
2022-12-18T01:25:40.453Z,1026.30
2022-12-18T01:26:40.433Z,1026.37
2022-12-18T01:27:40.465Z,1026.41
2022-12-18T01:28:40.978Z,1026.41
2022-12-18T01:29:40.440Z,1026.35
2022-12-18T01:30:40.401Z,1026.34
2022-12-18T01:31:40.447Z,1026.38
2022-12-18T01:32:40.377Z,1026.33
2022-12-18T01:33:40.688Z,1026.29
2022-12-18T01:34:40.333Z,1026.31
2022-12-18T01:35:40.323Z,1026.27
2022-12-18T01:36:40.305Z,1026.27
2022-12-18T01:37:40.316Z,1026.21
2022-12-18T01:38:40.273Z,1026.21
2022-12-18T01:39:40.271Z,1026.20
2022-12-18T01:40:40.253Z,1026.23
2022-12-18T01:41:40.243Z,1026.26
2022-12-18T01:42:40.242Z,1026.22
2022-12-18T01:43:40.678Z,1026.25
2022-12-18T01:44:40.213Z,1026.20
2022-12-18T01:45:40.251Z,1026.18
2022-12-18T01:46:40.190Z,1026.17
2022-12-18T01:47:40.247Z,1026.15
2022-12-18T01:48:40.181Z,1026.13
2022-12-18T01:49:40.151Z,1026.13
2022-12-18T01:50:40.141Z,1026.15
2022-12-18T01:51:40.121Z,1026.18
2022-12-18T01:52:40.112Z,1026.17
2022-12-18T01:53:40.485Z,1026.15
2022-12-18T01:54:40.075Z,1026.19
2022-12-18T01:55:40.080Z,1026.25
2022-12-18T01:56:40.053Z,1026.25
2022-12-18T01:57:40.073Z,1026.23
2022-12-18T01:58:40.023Z,1026.31
2022-12-18T01:59:40.022Z,1026.29
2022-12-18T02:00:40.072Z,1026.27
2022-12-18T02:01:40.049Z,1026.33
2022-12-18T02:02:40.091Z,1026.30
2022-12-18T02:03:40.354Z,1026.29
2022-12-18T02:04:41.924Z,1026.25
2022-12-18T02:05:39.951Z,1026.26
2022-12-18T02:06:39.928Z,1026.29
2022-12-18T02:07:39.930Z,1026.32
2022-12-18T02:08:39.897Z,1026.32
2022-12-18T02:09:39.891Z,1026.34
2022-12-18T02:10:39.861Z,1026.31
2022-12-18T02:11:39.890Z,1026.29
2022-12-18T02:12:39.872Z,1026.28
2022-12-18T02:13:40.330Z,1026.25
2022-12-18T02:14:39.823Z,1026.21
2022-12-18T02:15:39.810Z,1026.21
2022-12-18T02:16:39.843Z,1026.21
2022-12-18T02:17:39.820Z,1026.25
2022-12-18T02:18:39.771Z,1026.24
2022-12-18T02:19:39.761Z,1026.28
2022-12-18T02:20:39.748Z,1026.31
2022-12-18T02:21:39.740Z,1026.27
2022-12-18T02:22:39.738Z,1026.31
2022-12-18T02:23:40.073Z,1026.27
2022-12-18T02:24:39.692Z,1026.34
2022-12-18T02:25:39.701Z,1026.26
2022-12-18T02:26:39.662Z,1026.33
2022-12-18T02:27:39.800Z,1026.26
2022-12-18T02:28:39.672Z,1026.28
2022-12-18T02:29:39.640Z,1026.31
2022-12-18T02:30:39.675Z,1026.20
2022-12-18T02:31:39.626Z,1026.23
2022-12-18T02:32:39.609Z,1026.23
2022-12-18T02:33:39.828Z,1026.16
2022-12-18T02:34:39.573Z,1026.20
2022-12-18T02:35:39.572Z,1026.12
2022-12-18T02:36:47.347Z,1026.15
2022-12-18T02:37:46.562Z,1026.14
2022-12-18T02:38:39.513Z,1026.13
2022-12-18T02:39:39.505Z,1026.06
2022-12-18T02:40:39.493Z,1026.10
2022-12-18T02:41:39.483Z,1026.13
2022-12-18T02:42:39.474Z,1026.15
2022-12-18T02:43:39.833Z,1026.14
2022-12-18T02:44:39.465Z,1026.13
2022-12-18T02:45:39.470Z,1026.15
2022-12-18T02:46:39.422Z,1026.13
2022-12-18T02:47:39.429Z,1026.16
2022-12-18T02:48:39.395Z,1026.12
2022-12-18T02:49:39.383Z,1026.15
2022-12-18T02:50:39.364Z,1026.17
2022-12-18T02:51:39.354Z,1026.18
2022-12-18T02:52:39.365Z,1026.17
2022-12-18T02:53:39.713Z,1026.15
2022-12-18T02:54:39.311Z,1026.22
2022-12-18T02:55:39.300Z,1026.19
2022-12-18T02:56:39.295Z,1026.10
2022-12-18T02:57:39.331Z,1026.08
2022-12-18T02:58:39.280Z,1026.14
2022-12-18T02:59:39.255Z,1026.11
2022-12-18T03:00:39.282Z,1026.16
2022-12-18T03:01:39.359Z,1026.17
2022-12-18T03:02:39.346Z,1026.16
2022-12-18T03:03:39.545Z,1026.13
2022-12-18T03:04:39.204Z,1026.13
2022-12-18T03:05:39.181Z,1026.15
2022-12-18T03:06:39.154Z,1026.11
2022-12-18T03:07:39.172Z,1026.14
2022-12-18T03:08:39.142Z,1026.10
2022-12-18T03:09:39.121Z,1026.09
2022-12-18T03:10:39.102Z,1026.08
2022-12-18T03:11:39.120Z,1026.04
2022-12-18T03:12:39.121Z,1026.06
2022-12-18T03:13:39.443Z,1026.06
2022-12-18T03:14:39.116Z,1026.07
2022-12-18T03:15:39.051Z,1026.14
2022-12-18T03:16:39.058Z,1026.07
2022-12-18T03:17:39.050Z,1026.04
2022-12-18T03:18:39.027Z,1026.07
2022-12-18T03:19:39.020Z,1026.05
2022-12-18T03:20:38.980Z,1026.05
2022-12-18T03:21:38.972Z,1026.08
2022-12-18T03:22:39.003Z,1026.07
2022-12-18T03:23:39.309Z,1026.04
2022-12-18T03:24:38.932Z,1026.06
2022-12-18T03:25:38.939Z,1025.99
2022-12-18T03:26:38.910Z,1025.93
2022-12-18T03:27:38.910Z,1025.96
2022-12-18T03:28:38.876Z,1025.92
2022-12-18T03:29:38.881Z,1025.90
2022-12-18T03:30:38.930Z,1025.89
2022-12-18T03:31:38.844Z,1025.88
2022-12-18T03:32:38.851Z,1025.91
2022-12-18T03:33:39.071Z,1025.93
2022-12-18T03:34:38.821Z,1025.97
2022-12-18T03:35:38.793Z,1025.91
2022-12-18T03:36:38.792Z,1025.97
2022-12-18T03:37:38.799Z,1026.03
2022-12-18T03:38:38.753Z,1026.04
2022-12-18T03:39:38.749Z,1026.02
2022-12-18T03:40:38.739Z,1026.09
2022-12-18T03:41:38.744Z,1026.07
2022-12-18T03:42:38.752Z,1026.05
2022-12-18T03:43:39.026Z,1026.01
2022-12-18T03:44:38.685Z,1026.05
2022-12-18T03:45:38.670Z,1026.08
2022-12-18T03:46:38.660Z,1025.97
2022-12-18T03:47:38.665Z,1025.99
2022-12-18T03:48:38.638Z,1025.97
2022-12-18T03:49:38.618Z,1025.98
2022-12-18T03:50:38.623Z,1025.96
2022-12-18T03:51:38.591Z,1025.96
2022-12-18T03:52:38.590Z,1025.93
2022-12-18T03:53:38.966Z,1025.92
2022-12-18T03:54:38.559Z,1025.90
2022-12-18T03:55:38.576Z,1025.88
2022-12-18T03:56:38.536Z,1025.85
2022-12-18T03:57:38.561Z,1025.84
2022-12-18T03:58:38.498Z,1025.82
2022-12-18T03:59:38.489Z,1025.84
2022-12-18T04:00:38.483Z,1025.90
2022-12-18T04:01:38.576Z,1025.82
2022-12-18T04:02:38.534Z,1025.91
2022-12-18T04:03:38.902Z,1025.89
2022-12-18T04:04:38.420Z,1025.90
2022-12-18T04:05:38.410Z,1025.81
2022-12-18T04:06:38.403Z,1025.82
2022-12-18T04:07:38.401Z,1025.79
2022-12-18T04:08:38.401Z,1025.79
2022-12-18T04:09:38.363Z,1025.83
2022-12-18T04:10:38.363Z,1025.80
2022-12-18T04:11:38.334Z,1025.83
2022-12-18T04:12:38.329Z,1025.78
2022-12-18T04:13:38.698Z,1025.75
2022-12-18T04:14:38.301Z,1025.78
2022-12-18T04:15:38.326Z,1025.74
2022-12-18T04:16:38.281Z,1025.73
2022-12-18T04:17:38.288Z,1025.74
2022-12-18T04:18:38.301Z,1025.71
2022-12-18T04:19:38.233Z,1025.74
2022-12-18T04:20:38.233Z,1025.78
2022-12-18T04:21:38.211Z,1025.75
2022-12-18T04:22:38.209Z,1025.77
2022-12-18T04:23:38.608Z,1025.74
2022-12-18T04:24:38.181Z,1025.74
2022-12-18T04:25:38.149Z,1025.76
2022-12-18T04:26:38.149Z,1025.73
2022-12-18T04:27:47.828Z,1025.76
2022-12-18T04:28:38.114Z,1025.73
2022-12-18T04:29:38.104Z,1025.73
2022-12-18T04:30:38.094Z,1025.79
2022-12-18T04:31:38.133Z,1025.82
2022-12-18T04:32:38.103Z,1025.80
2022-12-18T04:33:38.445Z,1025.77
2022-12-18T04:34:38.050Z,1025.76
2022-12-18T04:35:38.044Z,1025.76
2022-12-18T04:36:38.023Z,1025.71
2022-12-18T04:37:38.035Z,1025.70
2022-12-18T04:38:37.995Z,1025.70
2022-12-18T04:39:37.975Z,1025.72
2022-12-18T04:40:37.981Z,1025.69
2022-12-18T04:41:37.945Z,1025.68
2022-12-18T04:42:37.999Z,1025.69
2022-12-18T04:43:38.228Z,1025.62
2022-12-18T04:44:37.923Z,1025.69
2022-12-18T04:45:37.903Z,1025.70
2022-12-18T04:46:37.923Z,1025.70
2022-12-18T04:47:37.901Z,1025.68
2022-12-18T04:48:37.871Z,1025.69
2022-12-18T04:49:37.843Z,1025.68
2022-12-18T04:50:37.837Z,1025.68
2022-12-18T04:51:37.822Z,1025.69
2022-12-18T04:52:37.832Z,1025.68
2022-12-18T04:53:38.067Z,1025.74
2022-12-18T04:54:37.783Z,1025.69
2022-12-18T04:55:37.780Z,1025.64
2022-12-18T04:56:37.796Z,1025.63
2022-12-18T04:57:37.742Z,1025.58
2022-12-18T04:58:37.767Z,1025.60
2022-12-18T04:59:37.725Z,1025.57
2022-12-18T05:00:37.712Z,1025.56
2022-12-18T05:01:37.730Z,1025.51
2022-12-18T05:02:37.817Z,1025.50
2022-12-18T05:03:38.118Z,1025.50
2022-12-18T05:04:37.669Z,1025.47
2022-12-18T05:05:37.641Z,1025.43
2022-12-18T05:06:37.640Z,1025.39
2022-12-18T05:07:37.632Z,1025.38
2022-12-18T05:08:37.616Z,1025.42
2022-12-18T05:09:37.592Z,1025.45
2022-12-18T05:10:38.483Z,1025.45
2022-12-18T05:11:37.580Z,1025.44
2022-12-18T05:12:37.581Z,1025.43
2022-12-18T05:13:37.892Z,1025.50
2022-12-18T05:14:37.531Z,1025.53
2022-12-18T05:15:37.546Z,1025.50
2022-12-18T05:16:37.510Z,1025.51
2022-12-18T05:17:37.521Z,1025.48
2022-12-18T05:18:37.492Z,1025.49
2022-12-18T05:19:37.495Z,1025.48
2022-12-18T05:20:37.463Z,1025.53
2022-12-18T05:21:37.441Z,1025.52
2022-12-18T05:22:37.452Z,1025.49
2022-12-18T05:23:37.676Z,1025.45
2022-12-18T05:24:37.416Z,1025.49
2022-12-18T05:25:37.394Z,1025.43
2022-12-18T05:26:37.385Z,1025.45
2022-12-18T05:27:37.381Z,1025.45
2022-12-18T05:28:37.361Z,1025.43
2022-12-18T05:29:37.341Z,1025.41
2022-12-18T05:30:37.330Z,1025.49
2022-12-18T05:31:39.719Z,1025.46
2022-12-18T05:32:37.320Z,1025.51
2022-12-18T05:33:37.589Z,1025.49
2022-12-18T05:34:37.290Z,1025.54
2022-12-18T05:35:37.261Z,1025.54
2022-12-18T05:36:37.249Z,1025.57
2022-12-18T05:37:42.674Z,1025.60
2022-12-18T05:38:38.241Z,1025.62
2022-12-18T05:39:37.209Z,1025.62
2022-12-18T05:40:37.201Z,1025.67
2022-12-18T05:41:37.195Z,1025.65
2022-12-18T05:42:37.190Z,1025.64
2022-12-18T05:43:37.493Z,1025.65
2022-12-18T05:44:37.173Z,1025.70
2022-12-18T05:45:37.165Z,1025.67
2022-12-18T05:46:37.199Z,1025.68
2022-12-18T05:47:37.119Z,1025.72
2022-12-18T05:48:37.099Z,1025.69
2022-12-18T05:49:37.078Z,1025.74
2022-12-18T05:50:37.101Z,1025.76
2022-12-18T05:51:37.060Z,1025.79
2022-12-18T05:52:37.080Z,1025.82
2022-12-18T05:53:37.498Z,1025.79
2022-12-18T05:54:37.029Z,1025.83
2022-12-18T05:55:37.022Z,1025.80
2022-12-18T05:56:37.000Z,1025.86
2022-12-18T05:57:37.010Z,1025.84
2022-12-18T05:58:36.989Z,1025.84
2022-12-18T05:59:36.958Z,1025.93
2022-12-18T06:00:36.979Z,1025.89
2022-12-18T06:01:37.017Z,1025.94
2022-12-18T06:02:37.135Z,1025.93
2022-12-18T06:03:36.978Z,1025.95
2022-12-18T06:04:36.899Z,1025.94
2022-12-18T06:05:36.879Z,1025.95
2022-12-18T06:06:36.876Z,1026.06
2022-12-18T06:07:36.877Z,1026.05
2022-12-18T06:08:40.289Z,1026.05
2022-12-18T06:09:37.832Z,1026.16
2022-12-18T06:10:36.828Z,1026.13
2022-12-18T06:11:36.805Z,1026.12
2022-12-18T06:12:36.820Z,1026.17
2022-12-18T06:13:36.990Z,1026.14
2022-12-18T06:14:36.780Z,1026.15
2022-12-18T06:15:36.756Z,1026.17
2022-12-18T06:16:36.813Z,1026.17
2022-12-18T06:17:36.748Z,1026.12
2022-12-18T06:18:36.727Z,1026.17
2022-12-18T06:19:36.699Z,1026.16
2022-12-18T06:20:36.698Z,1026.18
2022-12-18T06:21:36.680Z,1026.23
2022-12-18T06:22:36.707Z,1026.20
2022-12-18T06:23:36.804Z,1026.15
2022-12-18T06:24:36.679Z,1026.19
2022-12-18T06:25:36.628Z,1026.20
2022-12-18T06:26:36.620Z,1026.19
2022-12-18T06:27:36.649Z,1026.13
2022-12-18T06:28:36.600Z,1026.12
2022-12-18T06:29:36.574Z,1026.09
2022-12-18T06:30:36.570Z,1026.04
2022-12-18T06:31:36.669Z,1026.05
2022-12-18T06:32:36.567Z,1026.02
2022-12-18T06:33:36.635Z,1026.07
2022-12-18T06:34:36.528Z,1025.94
2022-12-18T06:35:36.498Z,1025.92
2022-12-18T06:36:36.489Z,1025.85
2022-12-18T06:37:36.509Z,1025.87
2022-12-18T06:38:36.584Z,1025.88
2022-12-18T06:39:36.446Z,1025.77
2022-12-18T06:40:36.439Z,1025.80
2022-12-18T06:41:36.420Z,1025.76
2022-12-18T06:42:36.428Z,1025.77
2022-12-18T06:43:36.566Z,1025.76
2022-12-18T06:44:36.387Z,1025.76
2022-12-18T06:45:36.391Z,1025.75
2022-12-18T06:46:36.367Z,1025.78
2022-12-18T06:47:36.367Z,1025.83
2022-12-18T06:48:36.336Z,1025.78
2022-12-18T06:49:36.317Z,1025.73
2022-12-18T06:50:36.310Z,1025.73
2022-12-18T06:51:36.298Z,1025.64
2022-12-18T06:52:36.315Z,1025.61
2022-12-18T06:53:36.356Z,1025.57
2022-12-18T06:54:36.257Z,1025.52
2022-12-18T06:55:36.247Z,1025.52
2022-12-18T06:56:36.235Z,1025.46
2022-12-18T06:57:36.252Z,1025.51
2022-12-18T06:58:36.212Z,1025.51
2022-12-18T06:59:36.189Z,1025.56
2022-12-18T07:00:36.219Z,1025.60
2022-12-18T07:01:36.279Z,1025.61
2022-12-18T07:02:36.252Z,1025.57
2022-12-18T07:03:36.185Z,1025.59
2022-12-18T07:04:36.137Z,1025.62
2022-12-18T07:05:36.120Z,1025.58
2022-12-18T07:06:36.116Z,1025.63
2022-12-18T07:07:36.113Z,1025.58
2022-12-18T07:08:36.092Z,1025.61
2022-12-18T07:09:36.071Z,1025.52
2022-12-18T07:10:36.055Z,1025.53
2022-12-18T07:11:36.045Z,1025.54
2022-12-18T07:12:36.055Z,1025.52
2022-12-18T07:13:36.080Z,1025.56
2022-12-18T07:14:36.017Z,1025.53
2022-12-18T07:15:35.994Z,1025.51
2022-12-18T07:16:36.018Z,1025.55
2022-12-18T07:17:35.984Z,1025.51
2022-12-18T07:18:35.956Z,1025.53
2022-12-18T07:19:35.943Z,1025.57
2022-12-18T07:20:35.957Z,1025.56
2022-12-18T07:21:35.917Z,1025.51
2022-12-18T07:22:35.923Z,1025.54
2022-12-18T07:23:35.902Z,1025.52
2022-12-18T07:24:35.875Z,1025.55
2022-12-18T07:25:35.866Z,1025.60
2022-12-18T07:26:35.867Z,1025.61
2022-12-18T07:27:35.856Z,1025.64
2022-12-18T07:28:35.836Z,1025.62
2022-12-18T07:29:35.814Z,1025.56
2022-12-18T07:30:35.804Z,1025.61
2022-12-18T07:31:35.809Z,1025.53
2022-12-18T07:32:35.815Z,1025.58
2022-12-18T07:33:35.776Z,1025.47
2022-12-18T07:34:35.761Z,1025.47
2022-12-18T07:35:35.736Z,1025.39
2022-12-18T07:36:35.727Z,1025.34
2022-12-18T07:37:35.724Z,1025.42
2022-12-18T07:38:35.696Z,1025.38
2022-12-18T07:39:35.684Z,1025.42
2022-12-18T07:40:35.674Z,1025.41
2022-12-18T07:41:35.663Z,1025.38
2022-12-18T07:42:35.696Z,1025.46
2022-12-18T07:43:35.637Z,1025.42
2022-12-18T07:44:35.628Z,1025.41
2022-12-18T07:45:35.673Z,1025.47
2022-12-18T07:46:35.606Z,1025.44
2022-12-18T07:47:35.604Z,1025.41
2022-12-18T07:48:35.573Z,1025.47
2022-12-18T07:49:35.556Z,1025.45
2022-12-18T07:50:35.544Z,1025.40
2022-12-18T07:51:35.536Z,1025.48
2022-12-18T07:52:35.534Z,1025.49
2022-12-18T07:53:35.499Z,1025.47
2022-12-18T07:54:35.500Z,1025.54
2022-12-18T07:55:59.893Z,1025.49
2022-12-18T07:56:36.473Z,1025.52
2022-12-18T07:57:50.371Z,1025.46
2022-12-18T07:58:36.451Z,1025.45
2022-12-18T07:59:35.434Z,1025.42
2022-12-18T08:00:35.416Z,1025.38
2022-12-18T08:01:35.530Z,1025.41
2022-12-18T08:02:35.477Z,1025.29
2022-12-18T08:03:35.383Z,1025.29
2022-12-18T08:04:35.365Z,1025.23
2022-12-18T08:05:35.353Z,1025.16
2022-12-18T08:06:35.344Z,1025.14
2022-12-18T08:07:35.344Z,1025.08
2022-12-18T08:08:35.313Z,1025.10
2022-12-18T08:09:35.304Z,1025.08
2022-12-18T08:10:35.285Z,1025.09
2022-12-18T08:11:35.273Z,1025.12
2022-12-18T08:12:35.274Z,1025.14
2022-12-18T08:13:35.258Z,1025.14
2022-12-18T08:14:35.234Z,1025.15
2022-12-18T08:15:35.235Z,1025.13
2022-12-18T08:16:35.236Z,1025.11
2022-12-18T08:17:35.221Z,1025.03
2022-12-18T08:18:35.196Z,1025.01
2022-12-18T08:19:35.173Z,1024.96
2022-12-18T08:20:35.169Z,1024.95
2022-12-18T08:21:35.153Z,1024.82
2022-12-18T08:22:35.167Z,1024.92
2022-12-18T08:23:39.249Z,1024.94
2022-12-18T08:24:36.108Z,1024.88
2022-12-18T08:25:35.109Z,1024.85
2022-12-18T08:26:35.094Z,1024.90
2022-12-18T08:27:35.219Z,1024.78
2022-12-18T08:28:35.055Z,1024.79
2022-12-18T08:29:35.045Z,1024.78
2022-12-18T08:30:35.098Z,1024.71
2022-12-18T08:31:35.057Z,1024.72
2022-12-18T08:32:35.027Z,1024.77
2022-12-18T08:33:34.995Z,1024.77
2022-12-18T08:34:34.984Z,1024.76
2022-12-18T08:35:38.810Z,1024.73
2022-12-18T08:36:36.135Z,1024.74
2022-12-18T08:37:34.944Z,1024.77
2022-12-18T08:38:34.925Z,1024.82
2022-12-18T08:39:34.924Z,1024.81
2022-12-18T08:40:34.904Z,1024.73
2022-12-18T08:41:34.893Z,1024.76
2022-12-18T08:42:34.903Z,1024.78
2022-12-18T08:43:34.875Z,1024.79
2022-12-18T08:44:34.852Z,1024.83
2022-12-18T08:45:34.920Z,1024.82
2022-12-18T08:46:34.883Z,1024.79
2022-12-18T08:47:34.836Z,1024.79
2022-12-18T08:48:34.806Z,1024.74
2022-12-18T08:49:34.795Z,1024.75
2022-12-18T08:50:34.776Z,1024.78
2022-12-18T08:51:34.764Z,1024.75
2022-12-18T08:52:34.785Z,1024.75
2022-12-18T08:53:35.917Z,1024.77
2022-12-18T08:54:34.722Z,1024.71
2022-12-18T08:55:34.717Z,1024.72
2022-12-18T08:56:34.703Z,1024.72
2022-12-18T08:57:34.721Z,1024.74
2022-12-18T08:58:34.683Z,1024.80
2022-12-18T08:59:34.669Z,1024.75
2022-12-18T09:00:34.643Z,1024.76
2022-12-18T09:01:35.515Z,1024.77
2022-12-18T09:02:34.774Z,1024.75
2022-12-18T09:03:34.677Z,1024.76
2022-12-18T09:04:34.604Z,1024.76
2022-12-18T09:05:34.593Z,1024.79
2022-12-18T09:06:34.574Z,1024.72
2022-12-18T09:07:34.585Z,1024.75
2022-12-18T09:08:34.543Z,1024.73
2022-12-18T09:09:34.534Z,1024.65
2022-12-18T09:10:38.798Z,1024.67
2022-12-18T09:11:35.525Z,1024.64
2022-12-18T09:12:34.523Z,1024.61
2022-12-18T09:13:34.493Z,1024.57
2022-12-18T09:14:34.472Z,1024.66
2022-12-18T09:15:34.463Z,1024.68
2022-12-18T09:16:34.483Z,1024.67
2022-12-18T09:17:34.460Z,1024.66
2022-12-18T09:18:34.422Z,1024.66
2022-12-18T09:19:34.414Z,1024.59
2022-12-18T09:20:34.396Z,1024.61
2022-12-18T09:21:37.168Z,1024.64
2022-12-18T09:22:34.384Z,1024.60
2022-12-18T09:23:34.363Z,1024.71
2022-12-18T09:24:34.343Z,1024.69
2022-12-18T09:25:34.331Z,1024.63
2022-12-18T09:26:34.312Z,1024.68
2022-12-18T09:27:34.341Z,1024.65
2022-12-18T09:28:34.304Z,1024.70
2022-12-18T09:29:34.305Z,1024.73
2022-12-18T09:30:34.328Z,1024.73
2022-12-18T09:31:34.263Z,1024.61
2022-12-18T09:32:34.254Z,1024.64
2022-12-18T09:33:34.255Z,1024.53
2022-12-18T09:34:34.214Z,1024.52
2022-12-18T09:35:34.204Z,1024.54
2022-12-18T09:36:34.191Z,1024.54
2022-12-18T09:37:34.182Z,1024.55
2022-12-18T09:38:34.196Z,1024.58
2022-12-18T09:39:34.156Z,1024.43
2022-12-18T09:40:34.133Z,1024.45
2022-12-18T09:41:34.142Z,1024.45
2022-12-18T09:42:34.133Z,1024.44
2022-12-18T09:43:34.103Z,1024.40
2022-12-18T09:44:34.125Z,1024.31
2022-12-18T09:45:34.075Z,1024.31
2022-12-18T09:46:34.090Z,1024.35
2022-12-18T09:47:34.071Z,1024.29
2022-12-18T09:48:34.029Z,1024.40
2022-12-18T09:49:34.024Z,1024.36
2022-12-18T09:50:34.014Z,1024.44
2022-12-18T09:51:34.003Z,1024.46
2022-12-18T09:52:34.001Z,1024.38
2022-12-18T09:53:33.979Z,1024.42
2022-12-18T09:54:33.955Z,1024.41
2022-12-18T09:55:37.469Z,1024.35
2022-12-18T09:56:33.942Z,1024.27
2022-12-18T09:57:33.922Z,1024.24
2022-12-18T09:58:33.922Z,1024.17
2022-12-18T09:59:33.894Z,1024.21
2022-12-18T10:00:33.880Z,1024.13
2022-12-18T10:01:43.103Z,1024.13
2022-12-18T10:02:34.938Z,1024.14
2022-12-18T10:03:33.847Z,1024.15
2022-12-18T10:04:33.868Z,1024.12
2022-12-18T10:05:33.816Z,1024.20
2022-12-18T10:06:33.802Z,1024.20
2022-12-18T10:07:33.804Z,1024.19
2022-12-18T10:08:33.765Z,1024.19
2022-12-18T10:09:33.816Z,1024.16
2022-12-18T10:10:33.744Z,1024.14
2022-12-18T10:11:33.742Z,1024.13
2022-12-18T10:12:34.901Z,1024.13
2022-12-18T10:13:33.712Z,1024.06
2022-12-18T10:14:33.693Z,1024.08
2022-12-18T10:15:33.728Z,1024.04
2022-12-18T10:16:33.664Z,1024.02
2022-12-18T10:17:33.684Z,1023.89
2022-12-18T10:18:33.644Z,1024.05
2022-12-18T10:19:33.635Z,1023.99
2022-12-18T10:20:33.616Z,1023.97
2022-12-18T10:21:33.611Z,1024.03
2022-12-18T10:22:33.627Z,1024.00
2022-12-18T10:23:33.583Z,1024.11
2022-12-18T10:24:33.563Z,1024.03
2022-12-18T10:25:33.560Z,1024.11
2022-12-18T10:26:33.547Z,1024.06
2022-12-18T10:27:34.565Z,1024.07
2022-12-18T10:28:33.615Z,1023.99
2022-12-18T10:29:33.503Z,1023.96
2022-12-18T10:30:33.493Z,1023.96
2022-12-18T10:31:33.548Z,1023.97
2022-12-18T10:32:33.466Z,1023.88
2022-12-18T10:33:33.488Z,1023.87
2022-12-18T10:34:33.434Z,1023.86
2022-12-18T10:35:33.423Z,1023.84
2022-12-18T10:36:33.415Z,1023.85
2022-12-18T10:37:33.417Z,1023.76
2022-12-18T10:38:33.385Z,1023.81
2022-12-18T10:39:33.385Z,1023.75
2022-12-18T10:40:33.364Z,1023.76
2022-12-18T10:41:33.362Z,1023.78
2022-12-18T10:42:33.466Z,1023.83
2022-12-18T10:43:33.326Z,1023.77
2022-12-18T10:44:33.302Z,1023.82
2022-12-18T10:45:33.384Z,1023.76
2022-12-18T10:46:33.358Z,1023.77
2022-12-18T10:47:33.304Z,1023.76
2022-12-18T10:48:33.282Z,1023.79
2022-12-18T10:49:33.253Z,1023.77
2022-12-18T10:51:01.697Z,1023.66
2022-12-18T10:51:34.223Z,1023.58
2022-12-18T10:52:33.223Z,1023.59
2022-12-18T10:53:33.197Z,1023.76
2022-12-18T10:54:33.174Z,1023.58
2022-12-18T10:55:33.180Z,1023.67
2022-12-18T10:56:33.152Z,1023.63
2022-12-18T10:57:33.163Z,1023.61
2022-12-18T10:58:33.124Z,1023.54
2022-12-18T10:59:33.117Z,1023.47
2022-12-18T11:00:33.097Z,1023.48
2022-12-18T11:01:33.154Z,1023.45
2022-12-18T11:02:33.286Z,1023.44
2022-12-18T11:03:33.157Z,1023.36
2022-12-18T11:04:33.056Z,1023.40
2022-12-18T11:05:33.040Z,1023.28
2022-12-18T11:06:33.038Z,1023.34
2022-12-18T11:07:33.031Z,1023.31
2022-12-18T11:08:33.000Z,1023.26
2022-12-18T11:09:33.013Z,1023.38
2022-12-18T11:10:32.982Z,1023.38
2022-12-18T11:11:32.959Z,1023.39
2022-12-18T11:12:32.964Z,1023.37
2022-12-18T11:13:32.941Z,1023.32
2022-12-18T11:14:32.913Z,1023.39
2022-12-18T11:15:32.920Z,1023.37
2022-12-18T11:16:32.958Z,1023.35
2022-12-18T11:17:32.903Z,1023.44
2022-12-18T11:18:32.865Z,1023.38
2022-12-18T11:19:32.866Z,1023.33
2022-12-18T11:20:32.844Z,1023.38
2022-12-18T11:21:32.830Z,1023.40
2022-12-18T11:22:32.830Z,1023.42
2022-12-18T11:23:32.819Z,1023.37
2022-12-18T11:24:32.784Z,1023.43
2022-12-18T11:25:34.344Z,1023.37
2022-12-18T11:26:32.765Z,1023.34
2022-12-18T11:27:32.764Z,1023.34
2022-12-18T11:28:32.753Z,1023.24
2022-12-18T11:29:32.724Z,1023.24
2022-12-18T11:30:32.712Z,1023.18
2022-12-18T11:31:32.754Z,1023.18
2022-12-18T11:32:32.693Z,1023.12
2022-12-18T11:33:32.683Z,1023.08
2022-12-18T11:34:32.653Z,1023.05
2022-12-18T11:35:32.653Z,1023.13
2022-12-18T11:36:32.633Z,1023.10
2022-12-18T11:37:32.644Z,1023.08
2022-12-18T11:38:32.625Z,1023.04
2022-12-18T11:39:32.595Z,1023.01
2022-12-18T11:40:36.512Z,1023.08
2022-12-18T11:41:33.574Z,1022.99
2022-12-18T11:42:32.577Z,1022.92
2022-12-18T11:43:32.544Z,1022.89
2022-12-18T11:44:32.523Z,1022.91
2022-12-18T11:45:32.525Z,1022.93
2022-12-18T11:46:32.532Z,1022.89
2022-12-18T11:47:32.513Z,1022.87
2022-12-18T11:48:32.473Z,1022.91
2022-12-18T11:49:32.472Z,1022.94
2022-12-18T11:50:32.454Z,1022.88
2022-12-18T11:51:32.442Z,1022.82
2022-12-18T11:52:32.446Z,1022.81
2022-12-18T11:53:32.413Z,1022.84
2022-12-18T11:54:32.403Z,1022.87
2022-12-18T11:55:32.388Z,1022.88
2022-12-18T11:56:32.374Z,1022.79
2022-12-18T11:57:32.386Z,1022.75
2022-12-18T11:58:32.354Z,1022.75
2022-12-18T11:59:32.373Z,1022.78
2022-12-18T12:00:32.323Z,1022.85
2022-12-18T12:01:32.385Z,1022.77
2022-12-18T12:02:32.457Z,1022.80
2022-12-18T12:03:32.399Z,1022.83
2022-12-18T12:04:32.360Z,1022.77
2022-12-18T12:05:32.255Z,1022.82